Francistown, Botswana

6:10 AM CAT on September 01, 2015 (GMT +0200)
Tumediso Ward | | Change Station
CLOSE
Current Station
Personal Weather Station
Location: Matshelagabedi, NORTH-EAST DISTRICT
Elevation: 3363 ft
Nearby Weather Stations

Elev 3363 ft 21.13 °S, 27.66 °E | Updated 29 seconds ago

Clear
Clear
64.8 °F
Feels Like 64.8 °F
N
3.0
Wind Variable Wind from NE
Gusts 7.0 mph

Today
High -- | Low -- °F
--% Chance of Precip.
Yesterday
High -- | Low -- °F
Precip. -- in
6:19 AM 6:00 PM
Waning Gibbous, 92% visible
Pressure 29.98 in
Visibility -9999.0 miles
Clouds
Dew Point 39 °F
Humidity 38%
Rainfall 0.00 in
Snow Depth Not available.
UV 0.0 out of 12
Pollen Not available.
Air Quality Not available.
Flu Activity Not available.
METAR FBSP 010400Z 00000KT CAVOK 15/07 Q1015
Pressure 29.98 in
Visibility -9999.0 miles
Clouds
Dew Point 39 °F
Humidity 38%
Rainfall 0.00 in
Snow Depth Not available.
UV 0.0 out of 12
Pollen Not available.
Air Quality Not available.
Flu Activity Not available.
METAR FBSP 010400Z 00000KT CAVOK 15/07 Q1015

10-Day Weather Forecast

×

Almanac

Astronomy

Sep. 01, 2015 Rise Set
Actual Time
Civil Twilight
Nautical Twilight
Astronomical Twilight
Moon
Length of Visible Light
Length of Day
Tomorrow will be .
, % of the Moon is Illuminated

Today's Extremes

Country Highs Country Lows

Community

WunderPhotos

Upload Photos

1,851,477 photos uploaded!

WunderBlogs® & News

Nearby

Air Quality

  Air Quality AQ Index Pollutant
Not available.

Snow Depth

Station Depth Elevation

Earthquake Activity

City Distance Mag. Time & Date
Minimum magnitude displayed is 2.5.

Coastal Water Temperatures

Place Temperature

Stations

Nearby Weather Stations

Station Location Temp. Windchill Dew Point Humidity Wind Precip. Elev Updated Type